Avondale, Pennsylvania
Current Conditions -  °F | °C
As of 2:55 PM on Saturday 25 Oct 2014 (Local Time) from KMQS Reporting Station
Clear Clear  
Wind Chill: 19°   Ceiling: Unl
Heat Index: 19°   Visibility: 10mi
Dew Point:   Wind: 12mph
Humidity: 46%   Direction: 280°W
Pressure: 29.78"   Gusts: 18mph
Location:  39.82°N, 75.78°W
Report Text: KMQS 251855Z AUTO 28010G16KT 10SM CLR 19/07 A2978 RMK AO2
Loading
Personal Weather Stations






























Interactive Weather Map
Tropical Storm Tracking
New forecast layout! Learn more

10-Day Weather Forecast

Advertisements
Track Severe Weather on mobile